createdAt,value
2018-05-12T00:00:17.946Z,11.60
2018-05-12T00:01:17.943Z,11.62
2018-05-12T00:02:17.955Z,11.64
2018-05-12T00:03:17.933Z,11.57
2018-05-12T00:04:17.935Z,11.54
2018-05-12T00:05:17.950Z,11.62
2018-05-12T00:06:17.930Z,11.57
2018-05-12T00:07:17.928Z,11.65
2018-05-12T00:08:17.927Z,11.58
2018-05-12T00:09:17.927Z,11.69
2018-05-12T00:10:17.924Z,11.61
2018-05-12T00:11:17.917Z,11.57
2018-05-12T00:12:17.914Z,11.62
2018-05-12T00:13:17.912Z,11.61
2018-05-12T00:14:17.915Z,11.64
2018-05-12T00:15:17.905Z,11.61
2018-05-12T00:16:17.903Z,11.54
2018-05-12T00:17:17.901Z,11.54
2018-05-12T00:18:17.897Z,11.51
2018-05-12T00:19:17.894Z,11.52
2018-05-12T00:20:17.893Z,11.62
2018-05-12T00:21:17.888Z,11.52
2018-05-12T00:22:17.886Z,11.51
2018-05-12T00:23:17.884Z,11.57
2018-05-12T00:24:17.879Z,11.57
2018-05-12T00:25:17.878Z,11.49
2018-05-12T00:26:17.877Z,11.64
2018-05-12T00:27:17.873Z,11.60
2018-05-12T00:28:17.872Z,11.55
2018-05-12T00:29:17.866Z,11.51
2018-05-12T00:30:17.865Z,11.43
2018-05-12T00:31:17.860Z,11.46
2018-05-12T00:32:17.859Z,11.44
2018-05-12T00:33:17.858Z,11.51
2018-05-12T00:34:17.852Z,11.44
2018-05-12T00:35:17.849Z,11.54
2018-05-12T00:36:17.844Z,11.36
2018-05-12T00:37:17.843Z,11.33
2018-05-12T00:38:17.846Z,11.40
2018-05-12T00:39:17.836Z,11.39
2018-05-12T00:40:17.838Z,11.37
2018-05-12T00:41:17.832Z,11.32
2018-05-12T00:42:17.830Z,11.32
2018-05-12T00:43:17.826Z,11.29
2018-05-12T00:44:17.823Z,11.22
2018-05-12T00:45:17.823Z,11.28
2018-05-12T00:46:17.817Z,11.28
2018-05-12T00:47:17.814Z,11.24
2018-05-12T00:48:17.817Z,11.28
2018-05-12T00:49:17.809Z,11.25
2018-05-12T00:50:17.808Z,11.27
2018-05-12T00:51:17.803Z,11.25
2018-05-12T00:52:17.799Z,11.25
2018-05-12T00:53:17.797Z,11.15
2018-05-12T00:54:17.794Z,11.21
2018-05-12T00:55:17.791Z,11.22
2018-05-12T00:56:17.803Z,11.21
2018-05-12T00:57:17.790Z,11.18
2018-05-12T00:58:17.783Z,11.21
2018-05-12T00:59:17.779Z,11.19
2018-05-12T01:00:17.776Z,11.19
2018-05-12T01:01:17.778Z,11.25
2018-05-12T01:02:17.772Z,11.18
2018-05-12T01:03:17.769Z,11.18
2018-05-12T01:04:17.764Z,11.18
2018-05-12T01:05:17.761Z,11.11
2018-05-12T01:06:17.759Z,11.11
2018-05-12T01:07:17.755Z,11.09
2018-05-12T01:08:17.755Z,11.15
2018-05-12T01:09:17.758Z,11.14
2018-05-12T01:10:17.747Z,11.17
2018-05-12T01:11:17.743Z,11.17
2018-05-12T01:12:17.741Z,11.15
2018-05-12T01:13:17.737Z,11.11
2018-05-12T01:14:17.743Z,11.10
2018-05-12T01:15:17.733Z,11.11
2018-05-12T01:16:17.730Z,11.04
2018-05-12T01:17:17.728Z,11.07
2018-05-12T01:18:17.762Z,11.04
2018-05-12T01:19:17.719Z,11.03
2018-05-12T01:20:17.716Z,11.02
2018-05-12T01:21:17.714Z,11.04
2018-05-12T01:22:17.709Z,11.00
2018-05-12T01:23:17.711Z,11.03
2018-05-12T01:24:17.710Z,11.04
2018-05-12T01:25:17.703Z,11.02
2018-05-12T01:26:17.701Z,11.04
2018-05-12T01:27:17.695Z,11.07
2018-05-12T01:28:17.693Z,10.97
2018-05-12T01:29:17.735Z,10.94
2018-05-12T01:30:17.686Z,11.06
2018-05-12T01:31:17.682Z,11.07
2018-05-12T01:32:17.679Z,10.99
2018-05-12T01:33:17.683Z,10.97
2018-05-12T01:34:17.674Z,10.94
2018-05-12T01:35:17.676Z,10.92
2018-05-12T01:36:17.667Z,10.92
2018-05-12T01:37:17.667Z,10.94
2018-05-12T01:38:17.663Z,10.89
2018-05-12T01:39:17.659Z,10.85
2018-05-12T01:40:17.659Z,10.89
2018-05-12T01:41:17.653Z,10.84
2018-05-12T01:42:17.648Z,10.94
2018-05-12T01:43:17.645Z,10.86
2018-05-12T01:44:17.643Z,10.91
2018-05-12T01:45:17.644Z,10.85
2018-05-12T01:46:17.638Z,10.82
2018-05-12T01:47:17.633Z,10.74
2018-05-12T01:48:17.630Z,10.79
2018-05-12T01:49:17.629Z,10.78
2018-05-12T01:50:17.624Z,10.78
2018-05-12T01:51:17.627Z,10.76
2018-05-12T01:52:17.618Z,10.79
2018-05-12T01:53:17.620Z,10.86
2018-05-12T01:54:17.612Z,10.73
2018-05-12T01:55:17.605Z,10.79
2018-05-12T01:56:17.605Z,10.73
2018-05-12T01:57:17.601Z,10.76
2018-05-12T01:58:17.603Z,10.82
2018-05-12T01:59:17.600Z,10.81
2018-05-12T02:00:17.591Z,10.73
2018-05-12T02:01:17.589Z,10.71
2018-05-12T02:02:17.587Z,10.74
2018-05-12T02:03:17.587Z,10.67
2018-05-12T02:04:17.581Z,10.70
2018-05-12T02:05:17.575Z,10.66
2018-05-12T02:06:17.573Z,10.70
2018-05-12T02:07:17.574Z,10.68
2018-05-12T02:08:17.570Z,10.63
2018-05-12T02:09:17.564Z,10.68
2018-05-12T02:10:17.565Z,10.70
2018-05-12T02:11:17.556Z,10.70
2018-05-12T02:12:17.555Z,10.66
2018-05-12T02:13:17.550Z,10.66
2018-05-12T02:14:17.548Z,10.68
2018-05-12T02:15:17.548Z,10.76
2018-05-12T02:16:17.539Z,10.66
2018-05-12T02:17:17.537Z,10.64
2018-05-12T02:18:17.539Z,10.68
2018-05-12T02:19:17.529Z,10.66
2018-05-12T02:20:17.528Z,10.68
2018-05-12T02:21:17.524Z,10.68
2018-05-12T02:22:17.525Z,10.68
2018-05-12T02:23:17.517Z,10.68
2018-05-12T02:24:17.512Z,10.68
2018-05-12T02:25:17.512Z,10.67
2018-05-12T02:26:17.509Z,10.81
2018-05-12T02:27:17.502Z,10.81
2018-05-12T02:28:17.500Z,10.71
2018-05-12T02:29:17.497Z,10.81
2018-05-12T02:30:17.510Z,10.78
2018-05-12T02:31:17.491Z,10.85
2018-05-12T02:32:17.490Z,10.79
2018-05-12T02:33:17.485Z,10.89
2018-05-12T02:34:17.483Z,10.89
2018-05-12T02:35:17.478Z,10.92
2018-05-12T02:36:17.475Z,11.02
2018-05-12T02:37:17.470Z,11.04
2018-05-12T02:38:17.471Z,11.07
2018-05-12T02:39:17.462Z,11.03
2018-05-12T02:40:17.461Z,11.17
2018-05-12T02:41:17.460Z,11.09
2018-05-12T02:42:17.481Z,11.11
2018-05-12T02:43:17.450Z,11.22
2018-05-12T02:44:17.447Z,11.25
2018-05-12T02:45:17.445Z,11.28
2018-05-12T02:46:17.442Z,11.32
2018-05-12T02:47:17.440Z,11.37
2018-05-12T02:48:17.440Z,11.40
2018-05-12T02:49:17.433Z,11.35
2018-05-12T02:50:17.430Z,11.43
2018-05-12T02:51:17.425Z,11.46
2018-05-12T02:52:17.420Z,11.52
2018-05-12T02:53:17.417Z,11.46
2018-05-12T02:54:17.415Z,11.51
2018-05-12T02:55:17.410Z,11.47
2018-05-12T02:56:17.407Z,11.55
2018-05-12T02:57:17.410Z,11.54
2018-05-12T02:58:17.403Z,11.61
2018-05-12T02:59:17.397Z,11.55
2018-05-12T03:00:17.395Z,11.64
2018-05-12T03:01:17.392Z,11.61
2018-05-12T03:02:17.392Z,11.61
2018-05-12T03:03:17.386Z,11.55
2018-05-12T03:04:17.381Z,11.60
2018-05-12T03:05:17.385Z,11.60
2018-05-12T03:06:17.377Z,11.58
2018-05-12T03:07:17.373Z,11.64
2018-05-12T03:08:17.370Z,11.61
2018-05-12T03:09:17.369Z,11.62
2018-05-12T03:10:17.365Z,11.78
2018-05-12T03:11:17.360Z,11.78
2018-05-12T03:12:17.357Z,11.85
2018-05-12T03:13:17.353Z,11.83
2018-05-12T03:14:17.351Z,11.82
2018-05-12T03:15:17.348Z,11.91
2018-05-12T03:16:17.344Z,11.85
2018-05-12T03:17:17.341Z,11.90
2018-05-12T03:18:17.338Z,11.95
2018-05-12T03:19:17.335Z,11.95
2018-05-12T03:20:17.340Z,11.99
2018-05-12T03:21:17.330Z,11.96
2018-05-12T03:22:17.322Z,12.02
2018-05-12T03:23:17.321Z,12.12
2018-05-12T03:24:17.320Z,12.13
2018-05-12T03:25:17.316Z,12.14
2018-05-12T03:26:17.314Z,12.13
2018-05-12T03:27:17.312Z,12.20
2018-05-12T03:28:17.308Z,12.28
2018-05-12T03:29:17.305Z,12.29
2018-05-12T03:30:17.392Z,12.32
2018-05-12T03:31:17.303Z,12.28
2018-05-12T03:32:17.297Z,12.29
2018-05-12T03:33:17.294Z,12.28
2018-05-12T03:34:17.294Z,12.38
2018-05-12T03:35:17.288Z,12.37
2018-05-12T03:36:17.281Z,12.35
2018-05-12T03:37:17.284Z,12.42
2018-05-12T03:38:17.284Z,12.49
2018-05-12T03:39:17.280Z,12.47
2018-05-12T03:40:17.279Z,12.46
2018-05-12T03:41:17.276Z,12.39
2018-05-12T03:42:17.267Z,12.39
2018-05-12T03:43:17.266Z,12.41
2018-05-12T03:44:17.262Z,12.38
2018-05-12T03:45:17.260Z,12.41
2018-05-12T03:46:17.260Z,12.47
2018-05-12T03:47:17.251Z,12.46
2018-05-12T03:48:17.255Z,12.49
2018-05-12T03:49:17.250Z,12.41
2018-05-12T03:50:17.245Z,12.42
2018-05-12T03:51:17.243Z,12.53
2018-05-12T03:52:17.243Z,12.56
2018-05-12T03:53:17.238Z,12.53
2018-05-12T03:54:17.237Z,12.65
2018-05-12T03:55:17.232Z,12.64
2018-05-12T03:56:17.234Z,12.65
2018-05-12T03:57:17.231Z,12.68
2018-05-12T03:58:17.226Z,12.71
2018-05-12T03:59:17.226Z,12.70
2018-05-12T04:00:17.224Z,12.72
2018-05-12T04:01:17.226Z,12.74
2018-05-12T04:02:17.217Z,12.78
2018-05-12T04:03:17.211Z,12.85
2018-05-12T04:04:17.210Z,12.85
2018-05-12T04:05:17.205Z,12.86
2018-05-12T04:06:17.204Z,12.92
2018-05-12T04:07:17.201Z,12.96
2018-05-12T04:08:17.199Z,12.83
2018-05-12T04:09:17.197Z,12.92
2018-05-12T04:10:17.195Z,12.86
2018-05-12T04:11:17.194Z,12.89
2018-05-12T04:12:17.185Z,12.95
2018-05-12T04:13:17.185Z,12.97
2018-05-12T04:14:17.182Z,12.95
2018-05-12T04:15:17.181Z,12.87
2018-05-12T04:16:17.177Z,12.92
2018-05-12T04:17:17.175Z,12.89
2018-05-12T04:18:17.176Z,12.86
2018-05-12T04:19:17.171Z,12.87
2018-05-12T04:20:17.171Z,12.83
2018-05-12T04:21:17.164Z,12.85
2018-05-12T04:22:17.162Z,12.85
2018-05-12T04:23:17.164Z,12.85
2018-05-12T04:24:17.173Z,12.85
2018-05-12T04:25:17.156Z,12.77
2018-05-12T04:26:17.153Z,12.74
2018-05-12T04:27:17.149Z,12.79
2018-05-12T04:28:17.146Z,12.78
2018-05-12T04:29:17.148Z,12.74
2018-05-12T04:30:17.142Z,12.79
2018-05-12T04:31:17.139Z,12.83
2018-05-12T04:32:17.135Z,12.82
2018-05-12T04:33:17.136Z,12.92
2018-05-12T04:34:17.129Z,12.97
2018-05-12T04:35:17.127Z,13.03
2018-05-12T04:36:17.122Z,13.03
2018-05-12T04:37:17.128Z,13.03
2018-05-12T04:38:17.119Z,13.17
2018-05-12T04:39:17.116Z,13.14
2018-05-12T04:40:17.115Z,13.23
2018-05-12T04:41:17.112Z,13.32
2018-05-12T04:42:17.109Z,13.36
2018-05-12T04:43:17.157Z,13.36
2018-05-12T04:44:17.104Z,13.48
2018-05-12T04:45:17.101Z,13.51
2018-05-12T04:46:17.099Z,13.69
2018-05-12T04:47:17.097Z,14.06
2018-05-12T04:48:17.098Z,14.52
2018-05-12T04:49:17.096Z,14.94
2018-05-12T04:50:17.090Z,15.20
2018-05-12T04:51:17.087Z,15.50
2018-05-12T04:52:17.086Z,15.75
2018-05-12T04:53:17.082Z,15.67
2018-05-12T04:54:17.138Z,15.65
2018-05-12T04:55:17.079Z,15.62
2018-05-12T04:56:17.073Z,15.89
2018-05-12T04:57:17.074Z,16.01
2018-05-12T04:58:17.071Z,16.20
2018-05-12T04:59:17.068Z,16.27
2018-05-12T05:00:17.067Z,16.12
2018-05-12T05:01:17.068Z,16.15
2018-05-12T05:02:17.064Z,16.07
2018-05-12T05:03:17.062Z,16.28
2018-05-12T05:04:17.060Z,16.15
2018-05-12T05:05:17.066Z,16.27
2018-05-12T05:06:17.057Z,16.31
2018-05-12T05:07:17.052Z,16.64
2018-05-12T05:08:17.097Z,16.73
2018-05-12T05:09:17.052Z,16.94
2018-05-12T05:10:17.049Z,16.94
2018-05-12T05:11:17.047Z,17.30
2018-05-12T05:12:17.047Z,17.43
2018-05-12T05:13:17.052Z,17.18
2018-05-12T05:14:17.045Z,17.07
2018-05-12T05:15:17.074Z,17.22
2018-05-12T05:16:17.043Z,18.00
2018-05-12T05:17:17.041Z,18.00
2018-05-12T05:18:17.042Z,18.44
2018-05-12T05:19:17.042Z,18.94
2018-05-12T05:20:17.036Z,19.51
2018-05-12T05:21:17.140Z,19.83
2018-05-12T05:22:17.036Z,19.91
2018-05-12T05:23:17.035Z,20.41
2018-05-12T05:24:17.035Z,20.50
2018-05-12T05:25:17.042Z,19.74
2018-05-12T05:26:17.034Z,19.54
2018-05-12T05:27:17.032Z,19.50
2018-05-12T05:28:17.033Z,19.83
2018-05-12T05:29:17.033Z,19.55
2018-05-12T05:30:17.033Z,19.63
2018-05-12T05:31:17.032Z,19.86
2018-05-12T05:32:17.032Z,19.81
2018-05-12T05:33:17.032Z,19.14
2018-05-12T05:34:17.032Z,19.13
2018-05-12T05:35:17.068Z,19.55
2018-05-12T05:36:17.039Z,19.65
2018-05-12T05:37:17.033Z,19.59
2018-05-12T05:38:17.033Z,19.46
2018-05-12T05:39:17.034Z,19.46
2018-05-12T05:40:17.036Z,20.23
2018-05-12T05:41:17.038Z,20.14
2018-05-12T05:42:17.038Z,20.76
2018-05-12T05:43:17.035Z,20.54
2018-05-12T05:44:17.035Z,20.73
2018-05-12T05:45:17.040Z,19.63
2018-05-12T05:46:17.037Z,19.61
2018-05-12T05:47:17.038Z,19.54
2018-05-12T05:48:17.040Z,19.41
2018-05-12T05:49:17.042Z,19.23
2018-05-12T05:50:17.055Z,19.59
2018-05-12T05:51:17.042Z,19.91
2018-05-12T05:52:17.049Z,19.95
2018-05-12T05:53:17.046Z,19.95
2018-05-12T05:54:17.046Z,19.55
2018-05-12T05:55:17.047Z,19.81
2018-05-12T05:56:17.048Z,19.02
2018-05-12T05:57:17.049Z,18.52
2018-05-12T05:58:17.060Z,18.50
2018-05-12T05:59:17.073Z,19.21
2018-05-12T06:00:17.052Z,19.19
2018-05-12T06:01:17.056Z,19.96
2018-05-12T06:02:17.053Z,20.38
2018-05-12T06:03:17.056Z,19.91
2018-05-12T06:04:17.056Z,20.31
2018-05-12T06:05:17.057Z,20.89
2018-05-12T06:06:17.066Z,21.13
2018-05-12T06:07:17.061Z,21.90
2018-05-12T06:08:17.062Z,22.33
2018-05-12T06:09:17.063Z,22.10
2018-05-12T06:10:17.067Z,21.34
2018-05-12T06:11:17.064Z,20.88
2018-05-12T06:12:17.069Z,20.02
2018-05-12T06:13:17.070Z,20.82
2018-05-12T06:14:17.071Z,20.88
2018-05-12T06:15:17.073Z,21.21
2018-05-12T06:16:17.074Z,21.12
2018-05-12T06:17:17.085Z,20.36
2018-05-12T06:18:17.078Z,19.92
2018-05-12T06:19:17.078Z,20.62
2018-05-12T06:20:17.081Z,21.65
2018-05-12T06:21:17.085Z,22.10
2018-05-12T06:22:17.086Z,22.10
2018-05-12T06:23:17.095Z,22.80
2018-05-12T06:24:17.100Z,21.99
2018-05-12T06:25:17.095Z,22.00
2018-05-12T06:26:17.091Z,21.72
2018-05-12T06:27:17.097Z,22.25
2018-05-12T06:28:17.100Z,22.18
2018-05-12T06:29:17.101Z,22.40
2018-05-12T06:30:17.106Z,22.58
2018-05-12T06:31:17.107Z,23.47
2018-05-12T06:32:17.109Z,23.93
2018-05-12T06:33:17.113Z,23.07
2018-05-12T06:34:17.115Z,22.17
2018-05-12T06:35:17.119Z,21.52
2018-05-12T06:36:17.131Z,21.22
2018-05-12T06:37:17.128Z,21.49
2018-05-12T06:38:17.129Z,21.94
2018-05-12T06:39:17.136Z,22.55
2018-05-12T06:40:17.136Z,22.10
2018-05-12T06:41:17.138Z,22.25
2018-05-12T06:42:17.147Z,22.10
2018-05-12T06:43:17.146Z,22.07
2018-05-12T06:44:17.143Z,22.00
2018-05-12T06:45:17.151Z,22.28
2018-05-12T06:46:17.155Z,22.18
2018-05-12T06:47:17.160Z,22.54
2018-05-12T06:48:17.167Z,22.77
2018-05-12T06:49:17.165Z,22.88
2018-05-12T06:50:17.169Z,22.90
2018-05-12T06:51:17.175Z,22.79
2018-05-12T06:52:17.176Z,22.75
2018-05-12T06:53:17.180Z,22.80
2018-05-12T06:54:17.184Z,22.49
2018-05-12T06:55:17.187Z,22.42
2018-05-12T06:56:17.189Z,22.43
2018-05-12T06:57:17.196Z,22.51
2018-05-12T06:58:17.202Z,23.00
2018-05-12T06:59:17.204Z,23.80
2018-05-12T07:00:17.214Z,24.42
2018-05-12T07:01:17.244Z,23.50
2018-05-12T07:02:17.212Z,23.79
2018-05-12T07:03:17.223Z,23.46
2018-05-12T07:04:17.226Z,22.72
2018-05-12T07:05:17.225Z,22.82
2018-05-12T07:06:17.229Z,23.22
2018-05-12T07:07:17.233Z,22.82
2018-05-12T07:08:17.240Z,21.99
2018-05-12T07:09:17.241Z,22.42
2018-05-12T07:10:17.247Z,22.57
2018-05-12T07:11:17.249Z,23.20
2018-05-12T07:12:17.300Z,23.53
2018-05-12T07:13:17.258Z,23.84
2018-05-12T07:14:17.269Z,23.94
2018-05-12T07:15:17.267Z,22.55
2018-05-12T07:16:17.272Z,22.40
2018-05-12T07:17:17.280Z,22.67
2018-05-12T07:18:17.285Z,22.39
2018-05-12T07:19:17.286Z,21.69
2018-05-12T07:20:17.289Z,21.27
2018-05-12T07:21:17.294Z,20.62
2018-05-12T07:22:17.301Z,20.66
2018-05-12T07:23:17.306Z,20.73
2018-05-12T07:24:17.307Z,20.91
2018-05-12T07:25:17.313Z,21.10
2018-05-12T07:26:17.321Z,22.17
2018-05-12T07:27:17.322Z,22.67
2018-05-12T07:28:17.325Z,21.94
2018-05-12T07:29:17.335Z,21.71
2018-05-12T07:30:17.335Z,22.28
2018-05-12T07:31:17.336Z,22.36
2018-05-12T07:32:17.343Z,22.35
2018-05-12T07:33:17.346Z,23.70
2018-05-12T07:34:17.352Z,24.35
2018-05-12T07:35:17.355Z,24.61
2018-05-12T07:36:17.361Z,24.12
2018-05-12T07:37:17.369Z,22.64
2018-05-12T07:38:17.374Z,22.42
2018-05-12T07:39:17.376Z,22.45
2018-05-12T07:40:17.382Z,22.40
2018-05-12T07:41:17.386Z,22.57
2018-05-12T07:42:17.392Z,23.07
2018-05-12T07:43:17.394Z,24.24
2018-05-12T07:44:17.401Z,24.30
2018-05-12T07:45:17.405Z,24.73
2018-05-12T07:46:17.410Z,25.24
2018-05-12T07:47:17.416Z,26.13
2018-05-12T07:48:17.420Z,26.69
2018-05-12T07:49:17.426Z,26.37
2018-05-12T07:50:17.431Z,26.62
2018-05-12T07:51:17.432Z,26.35
2018-05-12T07:52:17.449Z,24.93
2018-05-12T07:53:17.451Z,23.76
2018-05-12T07:54:17.461Z,23.47
2018-05-12T07:55:17.462Z,23.20
2018-05-12T07:56:17.476Z,22.70
2018-05-12T07:57:17.475Z,22.14
2018-05-12T07:58:17.486Z,22.00
2018-05-12T07:59:17.484Z,22.51
2018-05-12T08:00:17.492Z,22.14
2018-05-12T08:01:17.497Z,22.47
2018-05-12T08:02:17.504Z,22.73
2018-05-12T08:03:17.509Z,22.97
2018-05-12T08:04:17.516Z,22.82
2018-05-12T08:05:17.522Z,21.79
2018-05-12T08:06:17.527Z,21.17
2018-05-12T08:07:17.539Z,20.76
2018-05-12T08:08:17.539Z,21.56
2018-05-12T08:09:17.542Z,22.85
2018-05-12T08:10:17.551Z,22.83
2018-05-12T08:11:17.554Z,22.46
2018-05-12T08:12:17.560Z,22.24
2018-05-12T08:13:17.566Z,22.12
2018-05-12T08:14:17.572Z,22.27
2018-05-12T08:15:17.578Z,22.61
2018-05-12T08:16:17.584Z,22.21
2018-05-12T08:17:17.590Z,22.17
2018-05-12T08:18:17.596Z,22.37
2018-05-12T08:19:17.602Z,22.33
2018-05-12T08:20:17.609Z,22.15
2018-05-12T08:21:17.615Z,22.27
2018-05-12T08:22:17.685Z,22.43
2018-05-12T08:23:17.621Z,22.10
2018-05-12T08:24:17.635Z,22.22
2018-05-12T08:25:17.635Z,22.54
2018-05-12T08:26:17.639Z,23.75
2018-05-12T08:27:17.649Z,23.40
2018-05-12T08:28:17.649Z,22.68
2018-05-12T08:29:17.661Z,22.85
2018-05-12T08:30:17.662Z,22.79
2018-05-12T08:31:17.666Z,22.45
2018-05-12T08:32:17.672Z,22.83
2018-05-12T08:33:17.679Z,23.01
2018-05-12T08:34:17.684Z,23.66
2018-05-12T08:35:17.695Z,23.61
2018-05-12T08:36:17.697Z,23.31
2018-05-12T08:37:17.704Z,23.01
2018-05-12T08:38:17.712Z,22.95
2018-05-12T08:39:17.714Z,22.64
2018-05-12T08:40:17.753Z,22.07
2018-05-12T08:41:17.725Z,22.37
2018-05-12T08:42:17.730Z,21.99
2018-05-12T08:43:17.737Z,22.22
2018-05-12T08:44:17.742Z,22.45
2018-05-12T08:45:17.746Z,22.57
2018-05-12T08:46:17.753Z,22.42
2018-05-12T08:47:17.758Z,21.59
2018-05-12T08:48:17.772Z,21.34
2018-05-12T08:49:17.768Z,20.98
2018-05-12T08:50:17.776Z,21.28
2018-05-12T08:51:17.778Z,21.42
2018-05-12T08:52:17.783Z,21.25
2018-05-12T08:53:17.790Z,21.50
2018-05-12T08:54:17.795Z,21.79
2018-05-12T08:55:17.899Z,21.86
2018-05-12T08:56:17.804Z,21.50
2018-05-12T08:57:17.808Z,20.77
2018-05-12T08:58:17.814Z,20.72
2018-05-12T08:59:17.816Z,21.22
2018-05-12T09:00:17.822Z,21.44
2018-05-12T09:01:17.826Z,21.06
2018-05-12T09:02:17.833Z,20.89
2018-05-12T09:03:17.834Z,21.03
2018-05-12T09:04:17.837Z,21.14
2018-05-12T09:05:17.842Z,21.38
2018-05-12T09:06:17.846Z,21.35
2018-05-12T09:07:17.900Z,21.47
2018-05-12T09:08:17.855Z,21.37
2018-05-12T09:09:17.860Z,21.37
2018-05-12T09:10:17.866Z,21.28
2018-05-12T09:11:17.872Z,21.24
2018-05-12T09:12:17.870Z,21.01
2018-05-12T09:13:17.873Z,21.14
2018-05-12T09:14:17.878Z,21.34
2018-05-12T09:15:17.880Z,21.61
2018-05-12T09:16:17.882Z,21.91
2018-05-12T09:17:17.887Z,21.99
2018-05-12T09:18:17.897Z,21.94
2018-05-12T09:19:17.922Z,21.91
2018-05-12T09:20:17.900Z,22.17
2018-05-12T09:21:17.901Z,22.14
2018-05-12T09:22:17.906Z,22.02
2018-05-12T09:23:17.909Z,22.00
2018-05-12T09:24:17.913Z,21.86
2018-05-12T09:25:17.917Z,21.90
2018-05-12T09:26:17.920Z,22.10
2018-05-12T09:27:17.923Z,22.40
2018-05-12T09:28:17.929Z,22.60
2018-05-12T09:29:17.935Z,22.68
2018-05-12T09:30:17.943Z,22.95
2018-05-12T09:31:17.940Z,22.83
2018-05-12T09:32:17.944Z,22.82
2018-05-12T09:33:17.948Z,22.60
2018-05-12T09:34:17.952Z,22.47
2018-05-12T09:35:17.957Z,22.36
2018-05-12T09:36:17.960Z,21.90
2018-05-12T09:37:18.003Z,21.54
2018-05-12T09:38:17.967Z,21.69
2018-05-12T09:39:17.970Z,21.91
2018-05-12T09:40:17.991Z,21.86
2018-05-12T09:41:17.979Z,21.68
2018-05-12T09:42:18.037Z,21.91
2018-05-12T09:43:18.017Z,22.12
2018-05-12T09:44:17.991Z,22.18
2018-05-12T09:45:17.999Z,22.09
2018-05-12T09:46:17.999Z,22.00
2018-05-12T09:47:18.013Z,22.10
2018-05-12T09:48:18.010Z,21.92
2018-05-12T09:49:18.008Z,21.40
2018-05-12T09:50:18.013Z,21.34
2018-05-12T09:51:18.019Z,21.38
2018-05-12T09:52:18.026Z,21.07
2018-05-12T09:53:18.021Z,21.04
2018-05-12T09:54:18.027Z,21.14
2018-05-12T09:55:18.035Z,21.13
2018-05-12T09:56:18.038Z,21.13
2018-05-12T09:57:18.039Z,20.94
2018-05-12T09:58:18.042Z,20.77
2018-05-12T09:59:18.045Z,21.12
2018-05-12T10:00:18.048Z,21.01
2018-05-12T10:01:18.053Z,20.99
2018-05-12T10:02:18.055Z,21.22
2018-05-12T10:03:18.064Z,21.49
2018-05-12T10:04:18.064Z,21.86
2018-05-12T10:05:18.070Z,21.98
2018-05-12T10:06:18.069Z,21.90
2018-05-12T10:07:18.070Z,21.42
2018-05-12T10:08:18.076Z,21.42
2018-05-12T10:09:18.079Z,21.40
2018-05-12T10:10:18.086Z,21.31
2018-05-12T10:11:18.096Z,21.29
2018-05-12T10:12:18.088Z,21.10
2018-05-12T10:13:18.092Z,20.94
2018-05-12T10:14:18.092Z,20.82
2018-05-12T10:15:18.097Z,20.91
2018-05-12T10:16:18.100Z,21.06
2018-05-12T10:17:18.110Z,20.92
2018-05-12T10:18:18.110Z,20.87
2018-05-12T10:19:18.141Z,20.99
2018-05-12T10:20:18.118Z,21.04
2018-05-12T10:21:18.118Z,21.21
2018-05-12T10:22:18.121Z,21.07
2018-05-12T10:23:18.121Z,21.10
2018-05-12T10:24:18.127Z,20.95
2018-05-12T10:25:18.133Z,20.98
2018-05-12T10:26:18.149Z,21.31
2018-05-12T10:27:18.140Z,21.50
2018-05-12T10:28:18.145Z,21.47
2018-05-12T10:29:18.143Z,21.31
2018-05-12T10:30:18.147Z,21.32
2018-05-12T10:31:18.148Z,21.35
2018-05-12T10:32:18.157Z,21.42
2018-05-12T10:33:18.154Z,21.04
2018-05-12T10:34:18.160Z,21.13
2018-05-12T10:35:18.163Z,21.10
2018-05-12T10:36:18.165Z,21.34
2018-05-12T10:37:18.168Z,21.56
2018-05-12T10:38:18.175Z,21.44
2018-05-12T10:39:18.175Z,21.40
2018-05-12T10:40:18.180Z,21.44
2018-05-12T10:41:18.183Z,21.49
2018-05-12T10:42:18.187Z,21.71
2018-05-12T10:43:18.189Z,21.65
2018-05-12T10:44:18.195Z,21.88
2018-05-12T10:45:18.266Z,21.72
2018-05-12T10:46:18.207Z,21.98
2018-05-12T10:47:18.204Z,22.24
2018-05-12T10:48:18.206Z,21.80
2018-05-12T10:49:18.210Z,21.65
2018-05-12T10:50:18.218Z,21.40
2018-05-12T10:51:18.217Z,21.09
2018-05-12T10:52:18.219Z,20.94
2018-05-12T10:53:18.226Z,20.99
2018-05-12T10:54:18.228Z,21.29
2018-05-12T10:55:18.229Z,21.13
2018-05-12T10:56:18.233Z,21.35
2018-05-12T10:57:18.237Z,21.69
2018-05-12T10:58:18.243Z,21.71
2018-05-12T10:59:18.241Z,21.83
2018-05-12T11:00:18.249Z,21.84
2018-05-12T11:01:18.250Z,21.98
2018-05-12T11:02:18.255Z,22.12
2018-05-12T11:03:18.256Z,22.21
2018-05-12T11:04:18.260Z,21.99
2018-05-12T11:05:18.265Z,21.82
2018-05-12T11:06:18.261Z,22.07
2018-05-12T11:07:18.268Z,22.22
2018-05-12T11:08:18.272Z,22.36
2018-05-12T11:09:18.277Z,22.33
2018-05-12T11:10:18.282Z,22.57
2018-05-12T11:11:18.284Z,22.65
2018-05-12T11:12:18.286Z,22.46
2018-05-12T11:13:18.292Z,22.54
2018-05-12T11:14:18.293Z,22.65
2018-05-12T11:15:18.295Z,22.79
2018-05-12T11:16:18.297Z,22.90
2018-05-12T11:17:18.310Z,23.10
2018-05-12T11:18:18.307Z,23.09
2018-05-12T11:19:18.309Z,22.97
2018-05-12T11:20:18.396Z,22.85
2018-05-12T11:21:18.326Z,22.85
2018-05-12T11:22:18.323Z,22.75
2018-05-12T11:23:18.325Z,22.61
2018-05-12T11:24:18.328Z,22.76
2018-05-12T11:25:18.328Z,22.49
2018-05-12T11:26:18.344Z,22.07
2018-05-12T11:27:18.341Z,21.68
2018-05-12T11:28:18.343Z,21.91
2018-05-12T11:29:18.348Z,22.15
2018-05-12T11:30:18.352Z,22.22
2018-05-12T11:31:18.355Z,22.33
2018-05-12T11:32:18.376Z,22.22
2018-05-12T11:33:18.362Z,22.07
2018-05-12T11:34:18.369Z,22.09
2018-05-12T11:35:18.374Z,21.82
2018-05-12T11:36:18.379Z,21.99
2018-05-12T11:37:18.379Z,22.25
2018-05-12T11:38:18.382Z,22.15
2018-05-12T11:39:18.384Z,22.12
2018-05-12T11:40:18.394Z,21.98
2018-05-12T11:41:18.398Z,22.02
2018-05-12T11:42:18.407Z,22.36
2018-05-12T11:43:18.404Z,22.51
2018-05-12T11:44:18.406Z,22.77
2018-05-12T11:45:18.408Z,22.80
2018-05-12T11:46:18.416Z,22.92
2018-05-12T11:47:18.419Z,23.00
2018-05-12T11:48:18.424Z,23.19
2018-05-12T11:49:18.424Z,23.02
2018-05-12T11:50:18.430Z,22.55
2018-05-12T11:51:18.442Z,22.15
2018-05-12T11:52:18.443Z,22.35
2018-05-12T11:53:18.440Z,22.46
2018-05-12T11:54:18.445Z,22.22
2018-05-12T11:55:18.455Z,22.60
2018-05-12T11:56:18.460Z,22.67
2018-05-12T11:57:18.458Z,22.55
2018-05-12T11:58:18.481Z,22.72
2018-05-12T11:59:18.461Z,22.47
2018-05-12T12:00:18.467Z,22.35
2018-05-12T12:01:18.476Z,22.22
2018-05-12T12:02:18.475Z,22.36
2018-05-12T12:03:18.495Z,22.49
2018-05-12T12:04:18.482Z,22.49
2018-05-12T12:05:18.486Z,22.65
2018-05-12T12:06:18.492Z,22.15
2018-05-12T12:07:18.501Z,22.20
2018-05-12T12:08:18.497Z,22.07
2018-05-12T12:09:18.502Z,22.10
2018-05-12T12:10:18.511Z,22.27
2018-05-12T12:11:18.517Z,22.14
2018-05-12T12:12:18.513Z,21.82
2018-05-12T12:13:18.518Z,21.68
2018-05-12T12:14:18.524Z,21.86
2018-05-12T12:15:18.527Z,21.96
2018-05-12T12:16:18.533Z,22.35
2018-05-12T12:17:18.533Z,22.37
2018-05-12T12:18:18.539Z,22.22
2018-05-12T12:19:18.539Z,22.30
2018-05-12T12:20:18.546Z,22.12
2018-05-12T12:21:18.549Z,22.22
2018-05-12T12:22:18.571Z,22.20
2018-05-12T12:23:18.552Z,22.51
2018-05-12T12:24:18.560Z,22.68
2018-05-12T12:25:18.565Z,22.79
2018-05-12T12:26:18.571Z,23.01
2018-05-12T12:27:18.576Z,22.86
2018-05-12T12:28:18.574Z,23.01
2018-05-12T12:29:18.579Z,22.86
2018-05-12T12:30:18.585Z,22.83
2018-05-12T12:31:18.591Z,23.02
2018-05-12T12:32:18.589Z,23.19
2018-05-12T12:33:18.645Z,23.25
2018-05-12T12:34:18.601Z,23.22
2018-05-12T12:35:18.601Z,23.28
2018-05-12T12:36:18.609Z,22.86
2018-05-12T12:37:18.610Z,22.73
2018-05-12T12:38:18.613Z,22.83
2018-05-12T12:39:18.616Z,22.47
2018-05-12T12:40:18.621Z,22.60
2018-05-12T12:41:18.626Z,22.65
2018-05-12T12:42:18.627Z,22.83
2018-05-12T12:43:18.627Z,22.72
2018-05-12T12:44:18.634Z,22.43
2018-05-12T12:45:18.639Z,22.10
2018-05-12T12:46:18.644Z,21.90
2018-05-12T12:47:18.651Z,21.75
2018-05-12T12:48:18.650Z,21.91
2018-05-12T12:49:18.654Z,22.07
2018-05-12T12:50:18.659Z,22.36
2018-05-12T12:51:18.658Z,22.27
2018-05-12T12:52:18.663Z,22.35